createdAt,value
2018-11-29T00:00:30.149Z,97.89
2018-11-29T00:02:58.829Z,97.26
2018-11-29T00:05:27.632Z,97.76
2018-11-29T00:07:56.283Z,97.68
2018-11-29T00:10:25.061Z,96.83
2018-11-29T00:12:53.703Z,97.41
2018-11-29T00:15:22.392Z,96.73
2018-11-29T00:17:51.090Z,96.74
2018-11-29T00:20:20.366Z,97.35
2018-11-29T00:22:50.720Z,97.61
2018-11-29T00:25:19.839Z,98.39
2018-11-29T00:27:48.693Z,96.26
2018-11-29T00:30:21.214Z,96.64
2018-11-29T00:32:50.368Z,97.62
2018-11-29T00:35:19.122Z,97.44
2018-11-29T00:37:47.874Z,97.28
2018-11-29T00:40:18.494Z,97.15
2018-11-29T00:42:47.198Z,94.12
2018-11-29T00:45:17.601Z,96.38
2018-11-29T00:47:47.069Z,96.90
2018-11-29T00:50:16.351Z,95.70
2018-11-29T00:52:45.845Z,96.22
2018-11-29T00:55:16.007Z,95.38
2018-11-29T00:57:44.718Z,96.96
2018-11-29T01:00:19.345Z,98.14
2018-11-29T01:02:48.084Z,98.40
2018-11-29T01:05:16.838Z,97.42
2018-11-29T01:07:45.523Z,98.25
2018-11-29T01:10:15.963Z,98.53
2018-11-29T01:12:45.087Z,98.86
2018-11-29T01:15:15.613Z,98.56
2018-11-29T01:17:44.900Z,98.46
2018-11-29T01:20:14.431Z,98.05
2018-11-29T01:22:43.200Z,98.10
2018-11-29T01:25:12.633Z,98.78
2018-11-29T01:27:41.730Z,97.96
2018-11-29T01:30:11.558Z,98.01
2018-11-29T01:32:40.353Z,98.37
2018-11-29T01:35:10.239Z,98.40
2018-11-29T01:37:39.045Z,99.04
2018-11-29T01:40:09.553Z,98.49
2018-11-29T01:42:38.202Z,98.97
2018-11-29T01:45:07.012Z,99.01
2018-11-29T01:47:35.642Z,99.07
2018-11-29T01:50:04.512Z,99.88
2018-11-29T01:52:33.174Z,100.00
2018-11-29T01:55:01.802Z,99.00
2018-11-29T01:57:30.644Z,98.58
2018-11-29T01:59:59.341Z,98.95
2018-11-29T02:02:28.049Z,98.56
2018-11-29T02:04:56.697Z,99.60
2018-11-29T02:07:25.446Z,97.35
2018-11-29T02:10:57.020Z,96.93
2018-11-29T02:13:25.644Z,98.60
2018-11-29T02:15:54.237Z,99.41
2018-11-29T02:18:22.893Z,98.89
2018-11-29T02:20:51.526Z,97.88
2018-11-29T02:23:20.191Z,98.40
2018-11-29T02:25:48.803Z,98.86
2018-11-29T02:28:17.428Z,99.11
2018-11-29T02:30:46.110Z,99.70
2018-11-29T02:33:14.860Z,99.27
2018-11-29T02:35:43.618Z,99.15
2018-11-29T02:38:12.270Z,98.37
2018-11-29T02:40:40.927Z,97.97
2018-11-29T02:43:09.552Z,98.95
2018-11-29T02:45:38.233Z,99.06
2018-11-29T02:48:07.378Z,98.84
2018-11-29T02:50:36.130Z,100.00
2018-11-29T02:53:04.835Z,100.00
2018-11-29T02:55:33.521Z,99.73
2018-11-29T02:58:02.489Z,100.00
2018-11-29T03:00:31.142Z,100.00
2018-11-29T03:02:59.784Z,100.00
2018-11-29T03:05:28.436Z,100.00
2018-11-29T03:07:57.115Z,100.00
2018-11-29T03:10:26.594Z,100.00
2018-11-29T03:12:55.353Z,100.00
2018-11-29T03:15:24.028Z,100.00
2018-11-29T03:21:13.420Z,100.00
2018-11-29T03:23:42.067Z,100.00
2018-11-29T03:26:10.850Z,100.00
2018-11-29T03:28:39.521Z,100.00
2018-11-29T03:31:08.182Z,100.00
2018-11-29T03:33:36.819Z,100.00
2018-11-29T03:36:05.749Z,100.00
2018-11-29T03:38:34.506Z,100.00
2018-11-29T03:41:03.306Z,100.00
2018-11-29T03:43:32.017Z,100.00
2018-11-29T03:46:00.629Z,100.00
2018-11-29T03:48:29.315Z,100.00
2018-11-29T03:50:57.967Z,100.00
2018-11-29T03:53:26.676Z,100.00
2018-11-29T03:55:55.311Z,100.00
2018-11-29T03:58:23.993Z,100.00
2018-11-29T04:00:52.669Z,100.00
2018-11-29T04:03:21.254Z,100.00
2018-11-29T04:05:49.949Z,100.00
2018-11-29T04:08:18.634Z,100.00
2018-11-29T04:10:47.278Z,100.00
2018-11-29T04:13:15.905Z,100.00
2018-11-29T04:15:44.620Z,100.00
2018-11-29T04:18:13.218Z,100.00
2018-11-29T04:20:41.877Z,100.00
2018-11-29T04:23:10.612Z,100.00
2018-11-29T04:25:39.234Z,100.00
2018-11-29T04:28:07.873Z,100.00
2018-11-29T04:30:36.673Z,100.00
2018-11-29T04:33:05.378Z,100.00
2018-11-29T04:35:33.998Z,100.00
2018-11-29T04:38:02.675Z,100.00
2018-11-29T04:40:31.361Z,100.00
2018-11-29T04:43:00.080Z,100.00
2018-11-29T04:46:47.361Z,100.00
2018-11-29T04:49:16.086Z,100.00
2018-11-29T04:51:44.828Z,100.00
2018-11-29T04:54:13.463Z,100.00
2018-11-29T04:56:42.102Z,100.00
2018-11-29T04:59:10.819Z,100.00
2018-11-29T05:01:39.631Z,100.00
2018-11-29T05:04:08.398Z,100.00
2018-11-29T05:06:37.061Z,100.00
2018-11-29T05:09:09.146Z,100.00
2018-11-29T05:11:38.492Z,100.00
2018-11-29T05:14:07.306Z,100.00
2018-11-29T05:16:36.080Z,100.00
2018-11-29T05:19:04.851Z,100.00
2018-11-29T05:21:33.542Z,100.00
2018-11-29T05:24:02.153Z,100.00
2018-11-29T05:26:30.776Z,100.00
2018-11-29T05:28:59.429Z,100.00
2018-11-29T05:31:28.118Z,99.73
2018-11-29T05:33:56.810Z,99.18
2018-11-29T05:36:25.754Z,99.50
2018-11-29T05:38:54.422Z,99.73
2018-11-29T05:41:23.112Z,99.37
2018-11-29T05:43:52.022Z,100.00
2018-11-29T05:46:21.058Z,99.92
2018-11-29T05:48:49.823Z,99.46
2018-11-29T05:51:18.455Z,98.11
2018-11-29T05:53:47.115Z,97.86
2018-11-29T05:56:15.865Z,97.72
2018-11-29T05:58:44.555Z,97.69
2018-11-29T06:01:20.298Z,98.69
2018-11-29T06:03:48.987Z,98.72
2018-11-29T06:06:17.630Z,99.09
2018-11-29T06:08:46.303Z,98.48
2018-11-29T06:11:14.939Z,98.20
2018-11-29T06:13:43.626Z,98.20
2018-11-29T06:16:12.305Z,98.48
2018-11-29T06:18:41.005Z,98.69
2018-11-29T06:21:09.663Z,95.95
2018-11-29T06:23:38.401Z,95.35
2018-11-29T06:26:07.287Z,95.25
2018-11-29T06:28:36.168Z,94.93
2018-11-29T06:31:04.943Z,96.32
2018-11-29T06:33:33.723Z,96.93
2018-11-29T06:36:02.453Z,97.29
2018-11-29T06:38:31.113Z,98.00
2018-11-29T06:40:59.762Z,98.92
2018-11-29T06:43:28.445Z,96.70
2018-11-29T06:45:57.124Z,97.25
2018-11-29T06:48:25.771Z,97.79
2018-11-29T06:50:54.421Z,97.97
2018-11-29T06:53:28.107Z,95.83
2018-11-29T06:55:56.857Z,96.91
2018-11-29T06:58:25.483Z,96.06
2018-11-29T07:00:54.503Z,96.38
2018-11-29T07:03:23.195Z,96.61
2018-11-29T07:05:51.856Z,95.90
2018-11-29T07:08:20.518Z,95.67
2018-11-29T07:10:49.272Z,95.84
2018-11-29T07:13:17.854Z,95.38
2018-11-29T07:15:46.518Z,95.94
2018-11-29T07:18:15.185Z,95.83
2018-11-29T07:20:53.855Z,96.16
2018-11-29T07:23:22.582Z,93.93
2018-11-29T07:25:51.257Z,93.26
2018-11-29T07:28:19.939Z,93.63
2018-11-29T07:30:48.638Z,92.88
2018-11-29T07:33:17.353Z,94.72
2018-11-29T07:35:46.001Z,93.72
2018-11-29T07:38:14.651Z,94.01
2018-11-29T07:40:43.367Z,93.17
2018-11-29T07:43:12.061Z,93.83
2018-11-29T07:45:40.708Z,92.51
2018-11-29T07:48:09.423Z,91.56
2018-11-29T07:50:38.036Z,92.12
2018-11-29T07:53:06.916Z,93.48
2018-11-29T07:55:35.636Z,92.04
2018-11-29T07:58:04.343Z,92.10
2018-11-29T08:00:33.043Z,91.81
2018-11-29T08:03:01.751Z,91.20
2018-11-29T08:05:30.591Z,92.27
2018-11-29T08:07:59.360Z,91.27
2018-11-29T08:10:28.063Z,89.97
2018-11-29T08:12:56.824Z,90.91
2018-11-29T08:15:25.577Z,91.22
2018-11-29T08:17:54.340Z,92.73
2018-11-29T08:20:23.192Z,88.71
2018-11-29T08:22:52.438Z,88.75
2018-11-29T08:25:21.237Z,88.36
2018-11-29T08:27:49.891Z,89.37
2018-11-29T08:30:18.697Z,90.30
2018-11-29T08:32:47.362Z,90.77
2018-11-29T08:35:16.436Z,85.40
2018-11-29T08:37:46.881Z,85.63
2018-11-29T08:40:18.696Z,85.78
2018-11-29T08:42:47.501Z,88.27
2018-11-29T08:45:16.263Z,84.99
2018-11-29T08:47:44.956Z,85.70
2018-11-29T08:50:14.313Z,86.83
2018-11-29T08:52:44.094Z,85.66
2018-11-29T08:55:14.910Z,88.27
2018-11-29T08:57:43.625Z,87.47
2018-11-29T09:00:14.305Z,88.66
2018-11-29T09:02:44.370Z,86.39
2018-11-29T09:05:13.708Z,87.47
2018-11-29T09:07:42.900Z,87.97
2018-11-29T09:10:15.754Z,84.11
2018-11-29T09:12:44.777Z,86.45
2018-11-29T09:15:14.525Z,85.58
2018-11-29T09:17:43.523Z,86.18
2018-11-29T09:20:15.986Z,86.43
2018-11-29T09:22:44.699Z,87.86
2018-11-29T09:25:15.602Z,86.22
2018-11-29T09:27:44.307Z,85.25
2018-11-29T09:30:16.858Z,87.33
2018-11-29T09:32:47.100Z,85.39
2018-11-29T09:35:15.805Z,86.40
2018-11-29T09:37:44.428Z,85.48
2018-11-29T09:40:14.340Z,86.49
2018-11-29T09:42:43.167Z,86.67
2018-11-29T09:45:14.095Z,85.72
2018-11-29T09:47:43.029Z,86.33
2018-11-29T09:50:12.781Z,86.83
2018-11-29T09:52:41.775Z,86.60
2018-11-29T09:55:12.651Z,87.36
2018-11-29T09:57:41.604Z,85.47
2018-11-29T10:00:17.267Z,86.55
2018-11-29T10:02:48.762Z,85.76
2018-11-29T10:05:17.476Z,86.79
2018-11-29T10:07:46.146Z,85.71
2018-11-29T10:10:14.837Z,83.73
2018-11-29T10:12:43.555Z,86.40
2018-11-29T10:15:13.206Z,85.94
2018-11-29T10:17:41.915Z,87.19
2018-11-29T10:20:13.839Z,87.31
2018-11-29T10:22:43.234Z,86.46
2018-11-29T10:25:14.062Z,85.86
2018-11-29T10:27:48.293Z,85.50
2018-11-29T10:30:19.558Z,84.33
2018-11-29T10:32:48.529Z,85.69
2018-11-29T10:35:17.218Z,86.34
2018-11-29T10:37:45.933Z,85.60
2018-11-29T10:40:14.675Z,84.81
2018-11-29T10:42:43.481Z,86.72
2018-11-29T10:45:14.480Z,85.50
2018-11-29T10:47:44.102Z,86.97
2018-11-29T10:50:13.900Z,87.30
2018-11-29T10:52:42.705Z,83.82
2018-11-29T10:55:15.743Z,85.94
2018-11-29T10:57:44.576Z,86.36
2018-11-29T11:00:27.699Z,86.90
2018-11-29T11:03:07.774Z,89.29
2018-11-29T11:05:37.228Z,90.00
2018-11-29T11:08:08.564Z,87.75
2018-11-29T11:10:36.183Z,87.89
2018-11-29T11:13:05.160Z,87.36
2018-11-29T11:15:33.990Z,88.38
2018-11-29T11:18:02.829Z,89.27
2018-11-29T11:20:31.570Z,89.23
2018-11-29T11:23:00.361Z,90.44
2018-11-29T11:25:29.192Z,89.85
2018-11-29T11:27:57.997Z,89.34
2018-11-29T11:30:26.799Z,86.37
2018-11-29T11:32:55.513Z,89.88
2018-11-29T11:35:24.265Z,90.83
2018-11-29T11:37:53.306Z,89.06
2018-11-29T11:40:22.086Z,88.22
2018-11-29T11:42:50.812Z,88.02
2018-11-29T11:45:20.444Z,88.11
2018-11-29T11:47:49.408Z,88.89
2018-11-29T11:50:23.245Z,88.22
2018-11-29T11:52:52.707Z,88.41
2018-11-29T11:55:21.446Z,88.67
2018-11-29T11:57:50.223Z,88.52
2018-11-29T12:00:21.719Z,88.45
2018-11-29T12:02:53.105Z,87.53
2018-11-29T12:05:22.456Z,87.45
2018-11-29T12:07:51.321Z,89.16
2018-11-29T12:10:20.102Z,88.49
2018-11-29T12:12:48.909Z,88.83
2018-11-29T12:15:18.104Z,88.20
2018-11-29T12:17:47.437Z,88.71
2018-11-29T12:20:22.849Z,90.31
2018-11-29T12:22:51.541Z,89.13
2018-11-29T12:25:22.160Z,89.29
2018-11-29T12:27:51.574Z,88.71
2018-11-29T12:30:25.293Z,89.16
2018-11-29T12:32:56.655Z,88.54
2018-11-29T12:35:25.464Z,89.68
2018-11-29T12:37:54.200Z,89.63
2018-11-29T12:40:23.337Z,89.36
2018-11-29T12:42:52.148Z,89.86
2018-11-29T12:45:20.905Z,89.48
2018-11-29T12:47:49.643Z,89.76
2018-11-29T12:50:19.354Z,90.01
2018-11-29T12:52:48.032Z,89.97
2018-11-29T12:55:17.760Z,88.15
2018-11-29T12:57:46.535Z,87.30
2018-11-29T13:00:18.433Z,87.89
2018-11-29T13:02:49.341Z,88.59
2018-11-29T13:05:18.076Z,89.48
2018-11-29T13:07:46.752Z,87.65
2018-11-29T13:10:16.734Z,89.65
2018-11-29T13:12:45.480Z,89.61
2018-11-29T13:15:19.559Z,88.91
2018-11-29T13:17:48.362Z,88.52
2018-11-29T13:20:17.826Z,88.73
2018-11-29T13:22:46.681Z,88.48
2018-11-29T13:25:16.540Z,88.45
2018-11-29T13:27:45.254Z,88.49
2018-11-29T13:30:15.185Z,87.94
2018-11-29T13:32:44.032Z,88.21
2018-11-29T13:35:19.124Z,89.20
2018-11-29T13:37:52.388Z,89.64
2018-11-29T13:40:21.229Z,90.06
2018-11-29T13:42:51.475Z,89.32
2018-11-29T13:45:20.295Z,89.81
2018-11-29T13:47:49.998Z,89.31
2018-11-29T13:50:19.701Z,87.78
2018-11-29T13:52:48.535Z,88.71
2018-11-29T13:55:18.282Z,89.92
2018-11-29T13:57:48.755Z,91.37
2018-11-29T14:00:21.581Z,90.82
2018-11-29T14:02:51.714Z,90.49
2018-11-29T14:05:20.592Z,91.35
2018-11-29T14:07:49.488Z,91.35
2018-11-29T14:10:19.336Z,90.37
2018-11-29T14:12:49.075Z,90.83
2018-11-29T14:15:20.155Z,90.76
2018-11-29T14:17:49.300Z,91.68
2018-11-29T14:20:18.334Z,91.78
2018-11-29T14:22:47.226Z,90.42
2018-11-29T14:25:17.237Z,91.68
2018-11-29T14:27:48.154Z,92.39
2018-11-29T14:30:18.172Z,91.75
2018-11-29T14:32:47.113Z,91.09
2018-11-29T14:35:16.217Z,92.28
2018-11-29T14:37:45.138Z,91.66
2018-11-29T14:40:16.356Z,91.49
2018-11-29T14:42:45.260Z,90.80
2018-11-29T14:45:15.077Z,92.14
2018-11-29T14:47:44.101Z,93.86
2018-11-29T14:50:45.208Z,93.58
2018-11-29T14:53:14.134Z,93.02
2018-11-29T14:55:43.031Z,91.91
2018-11-29T14:58:13.162Z,93.09
2018-11-29T15:00:42.277Z,93.45
2018-11-29T15:03:15.768Z,93.37
2018-11-29T15:05:45.192Z,93.33
2018-11-29T15:08:13.987Z,92.71
2018-11-29T15:10:42.742Z,94.02
2018-11-29T15:13:12.370Z,93.24
2018-11-29T15:15:41.883Z,94.35
2018-11-29T15:18:11.434Z,92.30
2018-11-29T15:20:44.750Z,92.54
2018-11-29T15:23:14.766Z,93.75
2018-11-29T15:25:43.632Z,94.46
2018-11-29T15:28:12.445Z,93.94
2018-11-29T15:30:41.275Z,94.45
2018-11-29T15:33:10.061Z,94.20
2018-11-29T15:35:38.895Z,94.19
2018-11-29T15:38:08.010Z,94.44
2018-11-29T15:40:36.998Z,94.60
2018-11-29T15:43:05.916Z,95.41
2018-11-29T15:45:34.803Z,94.10
2018-11-29T15:48:03.577Z,94.47
2018-11-29T15:50:32.531Z,94.40
2018-11-29T15:53:01.301Z,92.67
2018-11-29T15:55:30.138Z,93.23
2018-11-29T15:57:59.759Z,92.99
2018-11-29T16:00:29.720Z,92.54
2018-11-29T16:03:02.935Z,94.40
2018-11-29T16:05:31.737Z,93.41
2018-11-29T16:08:00.585Z,93.22
2018-11-29T16:10:29.329Z,92.80
2018-11-29T16:12:58.582Z,92.55
2018-11-29T16:15:27.877Z,93.23
2018-11-29T16:17:56.586Z,93.43
2018-11-29T16:20:29.586Z,91.59
2018-11-29T16:22:58.357Z,92.11
2018-11-29T16:25:27.247Z,93.60
2018-11-29T16:27:56.440Z,92.21
2018-11-29T16:30:28.171Z,92.02
2018-11-29T16:32:58.360Z,92.34
2018-11-29T16:35:27.212Z,92.11
2018-11-29T16:37:56.070Z,91.26
2018-11-29T16:40:24.984Z,91.86
2018-11-29T16:42:53.739Z,91.44
2018-11-29T16:45:22.736Z,91.81
2018-11-29T16:47:51.544Z,92.12
2018-11-29T16:50:20.506Z,91.95
2018-11-29T16:52:49.345Z,91.52
2018-11-29T16:55:18.191Z,92.86
2018-11-29T16:57:50.990Z,90.50
2018-11-29T17:00:21.441Z,90.81
2018-11-29T17:02:50.267Z,92.04
2018-11-29T17:05:19.135Z,92.06
2018-11-29T17:07:47.922Z,90.27
2018-11-29T17:10:18.914Z,89.92
2018-11-29T17:12:59.914Z,90.70
2018-11-29T17:15:28.759Z,90.47
2018-11-29T17:17:57.659Z,89.70
2018-11-29T17:20:26.595Z,91.06
2018-11-29T17:22:55.383Z,90.91
2018-11-29T17:25:24.261Z,89.17
2018-11-29T17:27:53.115Z,89.24
2018-11-29T17:30:23.861Z,90.20
2018-11-29T17:32:58.475Z,91.15
2018-11-29T17:35:27.363Z,90.52
2018-11-29T17:37:58.583Z,90.47
2018-11-29T17:40:27.495Z,90.76
2018-11-29T17:42:57.067Z,91.42
2018-11-29T17:45:27.102Z,91.16
2018-11-29T17:47:57.218Z,92.22
2018-11-29T17:50:27.498Z,91.04
2018-11-29T17:52:56.240Z,91.61
2018-11-29T17:55:25.189Z,92.32
2018-11-29T17:57:54.068Z,91.26
2018-11-29T18:00:25.052Z,91.43
2018-11-29T18:02:54.053Z,91.89
2018-11-29T18:05:22.991Z,92.47
2018-11-29T18:07:51.921Z,91.57
2018-11-29T18:10:25.680Z,89.24
2018-11-29T18:12:58.978Z,88.05
2018-11-29T18:15:29.311Z,89.15
2018-11-29T18:17:58.131Z,88.52
2018-11-29T18:20:26.856Z,88.79
2018-11-29T18:22:55.686Z,89.12
2018-11-29T18:25:24.512Z,88.62
2018-11-29T18:27:53.804Z,89.85
2018-11-29T18:30:23.464Z,89.07
2018-11-29T18:32:52.180Z,88.66
2018-11-29T18:35:20.953Z,90.15
2018-11-29T18:37:50.172Z,90.25
2018-11-29T18:40:19.637Z,90.56
2018-11-29T18:42:55.752Z,89.99
2018-11-29T18:45:24.537Z,89.86
2018-11-29T18:47:54.000Z,89.23
2018-11-29T18:50:24.568Z,89.54
2018-11-29T18:52:53.662Z,89.37
2018-11-29T18:55:25.271Z,86.84
2018-11-29T18:57:54.845Z,87.44
2018-11-29T19:00:26.823Z,88.01
2018-11-29T19:02:57.120Z,87.58
2018-11-29T19:05:25.468Z,87.44
2018-11-29T19:07:54.180Z,87.11
2018-11-29T19:10:23.978Z,86.81
2018-11-29T19:12:55.263Z,86.85
2018-11-29T19:15:23.980Z,88.18
2018-11-29T19:17:52.678Z,87.95
2018-11-29T19:20:21.448Z,86.66
2018-11-29T19:22:50.249Z,87.71
2018-11-29T19:25:19.952Z,86.90
2018-11-29T19:27:48.702Z,86.50
2018-11-29T19:30:19.140Z,86.56
2018-11-29T19:32:51.282Z,85.83
2018-11-29T19:35:20.193Z,86.98
2018-11-29T19:37:49.470Z,86.76
2018-11-29T19:40:18.341Z,86.73
2018-11-29T19:42:47.138Z,86.80
2018-11-29T19:45:16.597Z,87.06
2018-11-29T19:47:45.446Z,86.35
2018-11-29T19:50:16.340Z,86.55
2018-11-29T19:52:48.253Z,87.09
2018-11-29T19:55:19.741Z,85.44
2018-11-29T19:57:48.569Z,86.14
2018-11-29T20:00:19.487Z,86.54
2018-11-29T20:02:48.985Z,86.79
2018-11-29T20:05:17.754Z,87.09
2018-11-29T20:07:46.613Z,86.37
2018-11-29T20:10:16.581Z,87.07
2018-11-29T20:12:46.274Z,87.65
2018-11-29T20:15:19.240Z,88.03
2018-11-29T20:17:48.354Z,88.32
2018-11-29T20:20:17.254Z,87.59
2018-11-29T20:22:46.126Z,87.68
2018-11-29T20:25:17.070Z,87.00
2018-11-29T20:27:45.992Z,88.06
2018-11-29T20:30:18.399Z,88.07
2018-11-29T20:32:48.017Z,87.03
2018-11-29T20:35:17.323Z,87.28
2018-11-29T20:37:46.117Z,88.36
2018-11-29T20:40:24.627Z,87.89
2018-11-29T20:42:55.457Z,87.26
2018-11-29T20:45:34.925Z,87.92
2018-11-29T20:48:15.180Z,87.39
2018-11-29T20:50:43.945Z,87.77
2018-11-29T20:53:14.542Z,88.33
2018-11-29T20:55:43.255Z,87.60
2018-11-29T20:58:11.943Z,86.98
2018-11-29T21:00:40.778Z,86.53
2018-11-29T21:03:09.753Z,87.12
2018-11-29T21:05:40.287Z,85.86
2018-11-29T21:08:10.171Z,85.61
2018-11-29T21:10:39.166Z,84.91
2018-11-29T21:13:08.707Z,84.63
2018-11-29T21:15:40.196Z,84.91
2018-11-29T21:18:10.214Z,83.41
2018-11-29T21:20:39.814Z,85.48
2018-11-29T21:23:10.778Z,85.35
2018-11-29T21:25:39.590Z,86.17
2018-11-29T21:28:08.430Z,85.50
2018-11-29T21:30:37.645Z,85.97
2018-11-29T21:33:07.093Z,84.29
2018-11-29T21:35:35.945Z,84.57
2018-11-29T21:38:13.134Z,84.77
2018-11-29T21:40:43.591Z,84.31
2018-11-29T21:43:12.356Z,83.42
2018-11-29T21:45:41.225Z,83.27
2018-11-29T21:48:10.002Z,84.29
2018-11-29T21:50:38.888Z,84.26
2018-11-29T21:53:07.884Z,83.89
2018-11-29T21:55:36.628Z,83.75
2018-11-29T21:58:05.671Z,84.48
2018-11-29T22:00:34.452Z,84.03
2018-11-29T22:03:03.363Z,84.17
2018-11-29T22:05:32.263Z,83.50
2018-11-29T22:08:00.977Z,84.53
2018-11-29T22:10:29.747Z,84.56
2018-11-29T22:12:58.534Z,84.34
2018-11-29T22:15:27.290Z,84.93
2018-11-29T22:18:16.996Z,84.45
2018-11-29T22:20:45.804Z,84.06
2018-11-29T22:23:14.575Z,83.86
2018-11-29T22:25:43.816Z,84.86
2018-11-29T22:28:12.539Z,83.64
2018-11-29T22:30:41.506Z,84.19
2018-11-29T22:33:10.289Z,84.38
2018-11-29T22:35:39.176Z,84.42
2018-11-29T22:38:08.462Z,84.09
2018-11-29T22:40:37.306Z,85.49
2018-11-29T22:43:06.208Z,84.70
2018-11-29T22:45:34.944Z,85.22
2018-11-29T22:48:03.715Z,85.23
2018-11-29T22:50:32.421Z,84.91
2018-11-29T22:53:01.205Z,85.27
2018-11-29T22:55:30.086Z,84.06
2018-11-29T22:57:58.917Z,85.08
2018-11-29T23:00:32.237Z,84.69
2018-11-29T23:03:01.362Z,85.41
2018-11-29T23:05:30.128Z,84.95
2018-11-29T23:07:58.928Z,85.07
2018-11-29T23:10:27.898Z,84.95
2018-11-29T23:12:56.486Z,84.09
2018-11-29T23:15:25.256Z,84.36
2018-11-29T23:17:54.183Z,84.72
2018-11-29T23:20:22.963Z,83.60
2018-11-29T23:22:51.815Z,83.86
2018-11-29T23:25:20.526Z,83.22
2018-11-29T23:27:49.365Z,84.00
2018-11-29T23:30:18.425Z,84.21
2018-11-29T23:32:47.150Z,83.42
2018-11-29T23:35:16.324Z,83.77
2018-11-29T23:37:45.133Z,84.26
2018-11-29T23:40:17.667Z,83.57
2018-11-29T23:42:46.900Z,84.31
2018-11-29T23:45:15.817Z,84.68
2018-11-29T23:47:44.595Z,84.46
2018-11-29T23:50:18.169Z,84.30
2018-11-29T23:52:47.302Z,84.14
2018-11-29T23:55:19.243Z,83.77
2018-11-29T23:57:48.094Z,83.96
